Trabzon, Turkey
Current Conditions -  °F | °C
As of 3:50 PM on Wednesday 26 Nov 2014 (Local Time) from LTCG Reporting Station
Broken Clouds Broken Clouds  
Wind Chill: 54°   Ceiling: 3500
Heat Index: 54°   Visibility: 6mi
Dew Point: 43°   Wind: 1mph
Humidity: 67%   Direction: NA
Pressure: 29.94"   Gusts: NA
Location:  41°N, 39.71°E
Report Text: LTCG 261250Z VRB01KT 9999 BKN035 BKN090 12/06 Q1014 NOSIG
Loading
Personal Weather Stations






























Interactive Weather Map New forecast layout! Learn more

10-Day Weather Forecast

Advertisements
Track Severe Weather on mobile